Time;durP1;ratioP1;P1;durP2;ratioP2;P2;SDS_P1;SDS_P2;PMS_P1;PMS_P2;Temp;Humidity;BMP_temperature;BMP_pressure;BME280_temperature;BME280_humidity;BME280_pressure;Samples;Min_cycle;Max_cycle;Signal;HPM_P1;HPM_P2
2021/01/18 22:06:00;;;;;;;116.30;44.43;;;;;;;-14.77;75.42;100892.36;102373;1109;112513;-68
2021/01/18 22:08:07;;;;;;;115.53;44.20;;;;;;;-14.79;75.42;100890.67;102525;1112;79400;-64
2021/01/18 22:10:14;;;;;;;116.60;45.93;;;;;;;-14.80;74.98;100892.40;102479;1112;71804;-66
2021/01/18 22:12:23;;;;;;;113.90;45.13;;;;;;;-14.69;75.12;100894.84;102500;1112;85073;-70
2021/01/18 22:14:32;;;;;;;119.63;46.53;;;;;;;-14.64;75.76;100887.89;102465;1112;79348;-69
2021/01/18 22:16:37;;;;;;;125.57;46.70;;;;;;;-14.59;75.07;100880.91;102470;1112;64923;-69
2021/01/18 22:18:43;;;;;;;128.50;47.40;;;;;;;-14.51;75.73;100884.24;102471;1112;81633;-65
2021/01/18 22:20:49;;;;;;;121.03;46.30;;;;;;;-14.44;75.58;100878.08;102500;1112;72080;-65
2021/01/18 22:22:55;;;;;;;122.90;46.50;;;;;;;-14.34;76.28;100882.27;102508;1113;85137;-65
2021/01/18 22:25:01;;;;;;;119.27;48.43;;;;;;;-14.28;75.62;100884.71;102501;1112;78589;-66
2021/01/18 22:27:08;;;;;;;120.97;47.43;;;;;;;-14.29;76.57;100883.02;102449;1113;65295;-66
2021/01/18 22:29:14;;;;;;;123.03;48.03;;;;;;;-14.22;75.69;100878.58;102487;1112;80885;-70
2021/01/18 22:31:29;;;;;;;115.47;48.47;;;;;;;-14.16;75.78;100874.16;102473;1112;73334;-69
2021/01/18 22:33:34;;;;;;;124.10;46.70;;;;;;;-14.09;75.72;100880.95;102498;1113;84835;-66
2021/01/18 22:35:43;;;;;;;118.13;46.27;;;;;;;-14.04;76.36;100881.77;102449;1112;80265;-67
2021/01/18 22:37:50;;;;;;;113.27;43.77;;;;;;;-14.07;75.41;100876.62;102498;1111;64833;-69
2021/01/18 22:39:56;;;;;;;99.00;40.00;;;;;;;-14.06;76.75;100877.48;102464;1112;82651;-69
2021/01/18 22:42:03;;;;;;;108.93;43.67;;;;;;;-13.98;76.17;100878.21;102499;1112;72771;-69
2021/01/18 22:44:09;;;;;;;116.90;45.67;;;;;;;-13.93;76.37;100872.06;102495;1111;85547;-69
2021/01/18 22:46:20;;;;;;;123.83;45.37;;;;;;;-13.86;75.90;100865.01;102464;1112;78587;-69
2021/01/18 22:48:28;;;;;;;108.23;41.93;;;;;;;-13.93;75.96;100863.41;102529;1112;64843;-65
2021/01/18 22:50:34;;;;;;;113.70;44.37;;;;;;;-13.93;76.22;100864.28;102482;1112;81494;-65
2021/01/18 22:52:40;;;;;;;111.07;43.27;;;;;;;-13.89;76.37;100857.27;102470;1116;71277;-65
2021/01/18 22:54:46;;;;;;;96.43;40.37;;;;;;;-13.85;75.92;100848.56;102490;1113;85287;-64
2021/01/18 22:56:53;;;;;;;102.70;39.20;;;;;;;-13.84;76.76;100852.85;102464;1112;79907;-64
2021/01/18 22:59:02;;;;;;;114.85;45.85;;;;;;;-13.79;76.47;100847.59;102446;1113;64881;-64
2021/01/18 23:01:07;;;;;;;116.20;44.33;;;;;;;-13.79;76.81;100855.39;102481;1113;81606;-64
2021/01/18 23:03:16;;;;;;;106.67;43.10;;;;;;;-13.73;76.25;100848.33;102484;1112;72063;-64
2021/01/18 23:05:22;;;;;;;120.77;45.23;;;;;;;-13.70;76.33;100850.05;102428;1109;86833;-63
2021/01/18 23:07:28;;;;;;;116.43;45.50;;;;;;;-13.61;77.32;100849.86;102430;1113;77424;-64
2021/01/18 23:09:34;;;;;;;117.93;47.77;;;;;;;-13.60;76.80;100841.19;102453;1112;64718;-64
2021/01/18 23:11:41;;;;;;;115.07;44.17;;;;;;;-13.63;76.88;100836.05;102495;1113;80257;-65
2021/01/18 23:13:47;;;;;;;112.33;42.50;;;;;;;-13.63;75.75;100830.86;102480;1112;72230;-64
2021/01/18 23:15:53;;;;;;;107.67;42.13;;;;;;;-13.68;76.02;100830.09;102456;1112;86567;-64
2021/01/18 23:17:58;;;;;;;107.10;42.73;;;;;;;-13.64;76.19;100837.78;102453;1112;78747;-64
2021/01/18 23:20:09;;;;;;;112.53;40.90;;;;;;;-13.66;76.17;100830.91;102496;1109;64884;-65
2021/01/18 23:22:15;;;;;;;106.90;39.63;;;;;;;-13.66;76.38;100816.19;102457;1112;81007;-64
2021/01/18 23:24:22;;;;;;;99.07;40.20;;;;;;;-13.60;76.93;100810.03;102496;1112;72788;-63
2021/01/18 23:26:27;;;;;;;111.60;39.20;;;;;;;-13.60;76.31;100816.08;102462;1112;85609;-64
2021/01/18 23:28:33;;;;;;;104.73;40.30;;;;;;;-13.56;76.15;100812.52;102493;1112;79129;-64
2021/01/18 23:30:42;;;;;;;107.93;39.27;;;;;;;-13.53;76.34;100809.87;102555;1109;65664;-63
2021/01/18 23:32:51;;;;;;;93.90;37.00;;;;;;;-13.54;76.92;100802.13;102487;1112;82283;-63
2021/01/18 23:34:57;;;;;;;105.27;40.97;;;;;;;-13.53;77.05;100803.81;102503;1112;72511;-68
2021/01/18 23:37:06;;;;;;;98.47;40.57;;;;;;;-13.51;77.67;100802.90;102474;1112;84827;-70
2021/01/18 23:39:11;;;;;;;94.63;36.77;;;;;;;-13.41;76.54;100800.99;102455;1112;78671;-65
2021/01/18 23:41:18;;;;;;;99.03;37.13;;;;;;;-13.38;77.84;100793.14;102487;1112;64897;-70
2021/01/18 23:43:24;;;;;;;99.90;38.03;;;;;;;-13.36;77.59;100791.36;102462;1112;81658;-64
2021/01/18 23:45:29;;;;;;;99.33;38.37;;;;;;;-13.36;76.81;100794.81;102468;1112;73349;-64
2021/01/18 23:47:35;;;;;;;108.67;40.40;;;;;;;-13.37;77.78;100803.48;102499;1112;85635;-69
2021/01/18 23:49:42;;;;;;;94.97;36.37;;;;;;;-13.35;77.86;100799.11;102411;1112;79663;-70
2021/01/18 23:51:48;;;;;;;91.80;36.80;;;;;;;-13.32;77.46;100787.83;102516;1112;64869;-70
2021/01/18 23:53:54;;;;;;;101.20;40.63;;;;;;;-13.29;77.80;100791.20;102515;1112;82605;-64
2021/01/18 23:56:00;;;;;;;91.03;38.30;;;;;;;-13.30;77.78;100783.45;102472;1111;73652;-63
2021/01/18 23:58:06;;;;;;;105.67;39.00;;;;;;;-13.23;77.71;100777.22;102453;1111;86187;-69
